sensor_id;sensor_type;location;lat;lon;timestamp;pressure;altitude;pressure_sealevel;temperature;humidity
48848;BME280;36611;51.638;5.784;2022-08-03T00:00:23;101394.66;;;24.77;50.72
48848;BME280;36611;51.638;5.784;2022-08-03T00:02:56;101389.75;;;24.72;50.79
48848;BME280;36611;51.638;5.784;2022-08-03T00:05:22;101388.41;;;24.68;50.59
48848;BME280;36611;51.638;5.784;2022-08-03T00:07:49;101384.72;;;24.61;50.69
48848;BME280;36611;51.638;5.784;2022-08-03T00:10:16;101385.28;;;24.56;51.02
48848;BME280;36611;51.638;5.784;2022-08-03T00:12:42;101384.94;;;24.51;50.87
48848;BME280;36611;51.638;5.784;2022-08-03T00:15:09;101382.75;;;24.47;51.08
48848;BME280;36611;51.638;5.784;2022-08-03T00:17:43;101380.41;;;24.44;51.04
48848;BME280;36611;51.638;5.784;2022-08-03T00:20:20;101383.69;;;24.39;51.11
48848;BME280;36611;51.638;5.784;2022-08-03T00:25:18;101389.28;;;24.31;51.23
48848;BME280;36611;51.638;5.784;2022-08-03T00:27:44;101386.91;;;24.28;51.43
48848;BME280;36611;51.638;5.784;2022-08-03T00:30:13;101385.00;;;24.28;51.59
48848;BME280;36611;51.638;5.784;2022-08-03T00:32:43;101388.59;;;24.29;51.56
48848;BME280;36611;51.638;5.784;2022-08-03T00:35:30;101389.44;;;24.29;51.24
48848;BME280;36611;51.638;5.784;2022-08-03T00:38:03;101389.44;;;24.29;51.52
48848;BME280;36611;51.638;5.784;2022-08-03T00:40:30;101395.78;;;24.30;51.58
48848;BME280;36611;51.638;5.784;2022-08-03T00:43:01;101395.97;;;24.28;51.95
48848;BME280;36611;51.638;5.784;2022-08-03T00:45:30;101391.69;;;24.26;51.67
48848;BME280;36611;51.638;5.784;2022-08-03T00:47:58;101393.09;;;24.22;51.67
48848;BME280;36611;51.638;5.784;2022-08-03T00:50:27;101383.53;;;24.18;51.87
48848;BME280;36611;51.638;5.784;2022-08-03T00:52:58;101384.06;;;24.13;51.72
48848;BME280;36611;51.638;5.784;2022-08-03T00:55:25;101386.69;;;24.06;51.51
48848;BME280;36611;51.638;5.784;2022-08-03T00:57:52;101379.56;;;23.97;51.75
48848;BME280;36611;51.638;5.784;2022-08-03T01:00:21;101378.41;;;23.92;51.90
48848;BME280;36611;51.638;5.784;2022-08-03T01:02:52;101384.09;;;23.90;52.35
48848;BME280;36611;51.638;5.784;2022-08-03T01:05:20;101386.66;;;23.92;52.24
48848;BME280;36611;51.638;5.784;2022-08-03T01:07:57;101376.03;;;23.89;52.21
48848;BME280;36611;51.638;5.784;2022-08-03T01:10:44;101374.88;;;23.83;52.41
48848;BME280;36611;51.638;5.784;2022-08-03T01:13:26;101379.03;;;23.79;52.47
48848;BME280;36611;51.638;5.784;2022-08-03T01:16:18;101377.84;;;23.73;52.24
48848;BME280;36611;51.638;5.784;2022-08-03T01:19:12;101369.31;;;23.68;52.42
48848;BME280;36611;51.638;5.784;2022-08-03T01:24:36;101369.53;;;23.59;52.88
48848;BME280;36611;51.638;5.784;2022-08-03T01:27:22;101362.84;;;23.53;52.49
48848;BME280;36611;51.638;5.784;2022-08-03T01:29:58;101369.75;;;23.49;53.09
48848;BME280;36611;51.638;5.784;2022-08-03T01:32:33;101363.75;;;23.45;53.04
48848;BME280;36611;51.638;5.784;2022-08-03T01:35:28;101365.84;;;23.43;53.23
48848;BME280;36611;51.638;5.784;2022-08-03T01:38:03;101364.13;;;23.42;53.00
48848;BME280;36611;51.638;5.784;2022-08-03T01:40:33;101372.72;;;23.39;53.24
48848;BME280;36611;51.638;5.784;2022-08-03T01:43:05;101367.75;;;23.35;53.16
48848;BME280;36611;51.638;5.784;2022-08-03T01:45:35;101361.13;;;23.29;53.18
48848;BME280;36611;51.638;5.784;2022-08-03T01:48:03;101371.75;;;23.24;53.21
48848;BME280;36611;51.638;5.784;2022-08-03T01:50:31;101365.78;;;23.21;53.32
48848;BME280;36611;51.638;5.784;2022-08-03T01:53:01;101364.06;;;23.20;53.27
48848;BME280;36611;51.638;5.784;2022-08-03T01:55:30;101363.22;;;23.19;53.07
48848;BME280;36611;51.638;5.784;2022-08-03T01:58:01;101364.44;;;23.17;53.78
48848;BME280;36611;51.638;5.784;2022-08-03T02:00:33;101361.03;;;23.14;53.71
48848;BME280;36611;51.638;5.784;2022-08-03T02:03:04;101356.06;;;23.10;53.86
48848;BME280;36611;51.638;5.784;2022-08-03T02:05:32;101352.16;;;23.04;53.91
48848;BME280;36611;51.638;5.784;2022-08-03T02:08:00;101355.94;;;22.95;54.08
48848;BME280;36611;51.638;5.784;2022-08-03T02:10:29;101348.94;;;22.93;54.13
48848;BME280;36611;51.638;5.784;2022-08-03T02:13:06;101354.75;;;22.90;53.97
48848;BME280;36611;51.638;5.784;2022-08-03T02:15:36;101350.31;;;22.89;54.00
48848;BME280;36611;51.638;5.784;2022-08-03T02:18:05;101355.97;;;22.87;54.38
48848;BME280;36611;51.638;5.784;2022-08-03T02:20:33;101354.25;;;22.86;54.28
48848;BME280;36611;51.638;5.784;2022-08-03T02:23:05;101347.44;;;22.82;54.56
48848;BME280;36611;51.638;5.784;2022-08-03T02:25:34;101348.47;;;22.81;54.34
48848;BME280;36611;51.638;5.784;2022-08-03T02:28:07;101347.75;;;22.79;54.65
48848;BME280;36611;51.638;5.784;2022-08-03T02:30:37;101349.81;;;22.77;54.83
48848;BME280;36611;51.638;5.784;2022-08-03T02:33:10;101346.56;;;22.73;54.85
48848;BME280;36611;51.638;5.784;2022-08-03T02:35:38;101349.47;;;22.72;54.77
48848;BME280;36611;51.638;5.784;2022-08-03T02:38:07;101337.69;;;22.71;55.14
48848;BME280;36611;51.638;5.784;2022-08-03T02:40:35;101342.97;;;22.73;55.30
48848;BME280;36611;51.638;5.784;2022-08-03T02:43:10;101344.88;;;22.72;55.20
48848;BME280;36611;51.638;5.784;2022-08-03T02:45:42;101336.47;;;22.74;55.54
48848;BME280;36611;51.638;5.784;2022-08-03T02:48:11;101334.59;;;22.74;55.33
48848;BME280;36611;51.638;5.784;2022-08-03T02:50:43;101335.63;;;22.73;55.26
48848;BME280;36611;51.638;5.784;2022-08-03T02:53:15;101337.69;;;22.71;55.59
48848;BME280;36611;51.638;5.784;2022-08-03T02:55:45;101336.16;;;22.69;55.69
48848;BME280;36611;51.638;5.784;2022-08-03T02:58:13;101337.19;;;22.68;55.84
48848;BME280;36611;51.638;5.784;2022-08-03T03:00:43;101334.63;;;22.66;55.80
48848;BME280;36611;51.638;5.784;2022-08-03T03:03:14;101332.22;;;22.63;55.63
48848;BME280;36611;51.638;5.784;2022-08-03T03:05:41;101335.81;;;22.64;55.61
48848;BME280;36611;51.638;5.784;2022-08-03T03:08:22;101332.22;;;22.63;55.73
48848;BME280;36611;51.638;5.784;2022-08-03T03:10:58;101324.19;;;22.62;55.81
48848;BME280;36611;51.638;5.784;2022-08-03T03:13:30;101328.13;;;22.59;55.72
48848;BME280;36611;51.638;5.784;2022-08-03T03:15:59;101330.88;;;22.59;55.70
48848;BME280;36611;51.638;5.784;2022-08-03T03:18:33;101329.66;;;22.62;55.82
48848;BME280;36611;51.638;5.784;2022-08-03T03:21:02;101335.81;;;22.64;55.46
48848;BME280;36611;51.638;5.784;2022-08-03T03:23:34;101337.53;;;22.65;55.64
48848;BME280;36611;51.638;5.784;2022-08-03T03:26:02;101341.97;;;22.66;55.79
48848;BME280;36611;51.638;5.784;2022-08-03T03:28:29;101340.09;;;22.66;55.88
48848;BME280;36611;51.638;5.784;2022-08-03T03:30:57;101333.75;;;22.66;55.62
48848;BME280;36611;51.638;5.784;2022-08-03T03:33:24;101336.50;;;22.66;55.87
48848;BME280;36611;51.638;5.784;2022-08-03T03:35:54;101333.59;;;22.67;55.78
48848;BME280;36611;51.638;5.784;2022-08-03T03:38:21;101332.06;;;22.65;55.56
48848;BME280;36611;51.638;5.784;2022-08-03T03:40:47;101334.13;;;22.63;55.67
48848;BME280;36611;51.638;5.784;2022-08-03T03:43:17;101326.94;;;22.62;55.94
48848;BME280;36611;51.638;5.784;2022-08-03T03:45:44;101329.00;;;22.60;55.65
48848;BME280;36611;51.638;5.784;2022-08-03T03:48:12;101339.09;;;22.59;56.01
48848;BME280;36611;51.638;5.784;2022-08-03T03:50:39;101332.59;;;22.60;55.75
48848;BME280;36611;51.638;5.784;2022-08-03T03:53:13;101332.59;;;22.60;55.72
48848;BME280;36611;51.638;5.784;2022-08-03T03:55:41;101334.63;;;22.58;55.97
48848;BME280;36611;51.638;5.784;2022-08-03T03:58:27;101345.09;;;22.55;55.79
48848;BME280;36611;51.638;5.784;2022-08-03T04:00:54;101339.09;;;22.51;56.07
48848;BME280;36611;51.638;5.784;2022-08-03T04:03:22;101340.31;;;22.48;56.08
48848;BME280;36611;51.638;5.784;2022-08-03T04:05:49;101338.06;;;22.52;56.54
48848;BME280;36611;51.638;5.784;2022-08-03T04:08:34;101335.16;;;22.54;56.24
48848;BME280;36611;51.638;5.784;2022-08-03T04:11:22;101335.00;;;22.55;56.50
48848;BME280;36611;51.638;5.784;2022-08-03T04:14:06;101334.31;;;22.53;56.50
48848;BME280;36611;51.638;5.784;2022-08-03T04:16:38;101337.72;;;22.55;56.56
48848;BME280;36611;51.638;5.784;2022-08-03T04:19:12;101340.28;;;22.57;56.49
48848;BME280;36611;51.638;5.784;2022-08-03T04:21:41;101336.53;;;22.58;56.71
48848;BME280;36611;51.638;5.784;2022-08-03T04:24:10;101337.38;;;22.58;56.93
48848;BME280;36611;51.638;5.784;2022-08-03T04:26:40;101330.88;;;22.59;56.67
48848;BME280;36611;51.638;5.784;2022-08-03T04:29:09;101337.88;;;22.62;56.70
48848;BME280;36611;51.638;5.784;2022-08-03T04:31:37;101330.53;;;22.62;56.40
48848;BME280;36611;51.638;5.784;2022-08-03T04:34:06;101340.44;;;22.63;56.64
48848;BME280;36611;51.638;5.784;2022-08-03T04:36:37;101340.44;;;22.63;56.58
48848;BME280;36611;51.638;5.784;2022-08-03T04:39:17;101349.50;;;22.64;56.52
48848;BME280;36611;51.638;5.784;2022-08-03T04:41:47;101338.72;;;22.62;56.70
48848;BME280;36611;51.638;5.784;2022-08-03T04:45:01;101345.41;;;22.60;56.81
48848;BME280;36611;51.638;5.784;2022-08-03T04:47:32;101347.13;;;22.61;56.99
48848;BME280;36611;51.638;5.784;2022-08-03T04:50:00;101340.44;;;22.63;56.90
48848;BME280;36611;51.638;5.784;2022-08-03T04:52:27;101345.91;;;22.63;57.06
48848;BME280;36611;51.638;5.784;2022-08-03T04:54:54;101339.09;;;22.59;56.92
48848;BME280;36611;51.638;5.784;2022-08-03T04:57:21;101348.31;;;22.58;57.19
48848;BME280;36611;51.638;5.784;2022-08-03T04:59:50;101343.72;;;22.59;57.28
48848;BME280;36611;51.638;5.784;2022-08-03T05:02:27;101348.84;;;22.62;57.19
48848;BME280;36611;51.638;5.784;2022-08-03T05:04:58;101360.28;;;22.65;57.40
48848;BME280;36611;51.638;5.784;2022-08-03T05:07:25;101356.16;;;22.69;57.46
48848;BME280;36611;51.638;5.784;2022-08-03T05:10:01;101362.31;;;22.71;57.51
48848;BME280;36611;51.638;5.784;2022-08-03T05:12:28;101351.03;;;22.74;57.68
48848;BME280;36611;51.638;5.784;2022-08-03T05:15:00;101356.81;;;22.79;57.75
48848;BME280;36611;51.638;5.784;2022-08-03T05:17:27;101363.00;;;22.81;57.83
48848;BME280;36611;51.638;5.784;2022-08-03T05:19:54;101359.91;;;22.85;57.97
48848;BME280;36611;51.638;5.784;2022-08-03T05:22:21;101368.63;;;22.88;57.71
48848;BME280;36611;51.638;5.784;2022-08-03T05:24:48;101357.50;;;22.90;57.66
48848;BME280;36611;51.638;5.784;2022-08-03T05:27:15;101372.06;;;22.90;58.36
48848;BME280;36611;51.638;5.784;2022-08-03T05:29:45;101370.84;;;22.93;58.35
48848;BME280;36611;51.638;5.784;2022-08-03T05:32:12;101368.78;;;22.95;58.21
48848;BME280;36611;51.638;5.784;2022-08-03T05:34:39;101370.31;;;22.97;58.48
48848;BME280;36611;51.638;5.784;2022-08-03T05:37:06;101371.66;;;23.01;58.82
48848;BME280;36611;51.638;5.784;2022-08-03T05:39:33;101369.59;;;23.03;58.71
48848;BME280;36611;51.638;5.784;2022-08-03T05:42:01;101377.13;;;23.09;58.85
48848;BME280;36611;51.638;5.784;2022-08-03T05:44:27;101374.03;;;23.12;58.89
48848;BME280;36611;51.638;5.784;2022-08-03T05:46:56;101383.44;;;23.18;59.02
48848;BME280;36611;51.638;5.784;2022-08-03T05:49:22;101382.91;;;23.23;58.99
48848;BME280;36611;51.638;5.784;2022-08-03T05:51:49;101387.84;;;23.27;58.83
48848;BME280;36611;51.638;5.784;2022-08-03T05:54:37;101379.94;;;23.32;58.87
48848;BME280;36611;51.638;5.784;2022-08-03T05:57:24;101384.03;;;23.36;59.21
48848;BME280;36611;51.638;5.784;2022-08-03T05:59:50;101384.16;;;23.43;59.10
48848;BME280;36611;51.638;5.784;2022-08-03T06:02:25;101387.72;;;23.52;59.13
48848;BME280;36611;51.638;5.784;2022-08-03T06:04:56;101383.75;;;23.62;59.27
48848;BME280;36611;51.638;5.784;2022-08-03T06:07:23;101380.75;;;23.72;59.33
48848;BME280;36611;51.638;5.784;2022-08-03T06:09:50;101381.41;;;23.82;59.32
48848;BME280;36611;51.638;5.784;2022-08-03T06:12:36;101390.56;;;23.97;58.92
48848;BME280;36611;51.638;5.784;2022-08-03T06:15:04;101389.94;;;24.10;59.11
48848;BME280;36611;51.638;5.784;2022-08-03T06:17:33;101393.94;;;24.22;59.04
48848;BME280;36611;51.638;5.784;2022-08-03T06:20:04;101389.75;;;24.34;59.06
48848;BME280;36611;51.638;5.784;2022-08-03T06:22:31;101388.94;;;24.49;58.46
48848;BME280;36611;51.638;5.784;2022-08-03T06:24:59;101391.72;;;24.63;58.56
48848;BME280;36611;51.638;5.784;2022-08-03T06:27:32;101389.19;;;24.77;58.37
48848;BME280;36611;51.638;5.784;2022-08-03T06:30:03;101386.63;;;24.90;58.25
48848;BME280;36611;51.638;5.784;2022-08-03T06:32:30;101381.53;;;25.01;57.99
48848;BME280;36611;51.638;5.784;2022-08-03T06:34:57;101388.06;;;25.15;57.88
48848;BME280;36611;51.638;5.784;2022-08-03T06:37:24;101391.00;;;25.28;57.51
48848;BME280;36611;51.638;5.784;2022-08-03T06:39:52;101388.22;;;25.43;57.17
48848;BME280;36611;51.638;5.784;2022-08-03T06:42:19;101396.25;;;25.59;57.00
48848;BME280;36611;51.638;5.784;2022-08-03T06:44:52;101391.59;;;25.75;56.85
48848;BME280;36611;51.638;5.784;2022-08-03T06:47:18;101392.84;;;25.93;56.72
48848;BME280;36611;51.638;5.784;2022-08-03T06:49:45;101398.97;;;26.10;56.61
48848;BME280;36611;51.638;5.784;2022-08-03T06:52:32;101401.63;;;26.25;55.83
48848;BME280;36611;51.638;5.784;2022-08-03T06:55:05;101405.19;;;26.40;55.50
48848;BME280;36611;51.638;5.784;2022-08-03T06:57:32;101398.94;;;26.53;55.05
48848;BME280;36611;51.638;5.784;2022-08-03T06:59:59;101397.31;;;26.65;54.83
48848;BME280;36611;51.638;5.784;2022-08-03T07:02:37;101400.44;;;26.83;54.47
48848;BME280;36611;51.638;5.784;2022-08-03T07:05:09;101399.09;;;27.01;54.01
48848;BME280;36611;51.638;5.784;2022-08-03T07:07:36;101404.28;;;27.17;53.52
48848;BME280;36611;51.638;5.784;2022-08-03T07:10:04;101393.06;;;27.25;53.15
48848;BME280;36611;51.638;5.784;2022-08-03T07:12:31;101396.94;;;27.37;52.95
48848;BME280;36611;51.638;5.784;2022-08-03T07:15:03;101401.69;;;27.50;52.94
48848;BME280;36611;51.638;5.784;2022-08-03T07:17:32;101400.72;;;27.64;52.37
48848;BME280;36611;51.638;5.784;2022-08-03T07:19:59;101407.53;;;27.75;52.13
48848;BME280;36611;51.638;5.784;2022-08-03T07:22:28;101410.94;;;27.83;51.84
48848;BME280;36611;51.638;5.784;2022-08-03T07:24:56;101411.81;;;27.91;51.53
48848;BME280;36611;51.638;5.784;2022-08-03T07:27:23;101413.72;;;27.97;51.49
48848;BME280;36611;51.638;5.784;2022-08-03T07:29:52;101418.84;;;28.06;51.33
48848;BME280;36611;51.638;5.784;2022-08-03T07:32:19;101417.38;;;28.17;50.56
48848;BME280;36611;51.638;5.784;2022-08-03T07:34:47;101409.31;;;28.22;50.80
48848;BME280;36611;51.638;5.784;2022-08-03T07:37:13;101414.25;;;28.27;50.26
48848;BME280;36611;51.638;5.784;2022-08-03T07:39:40;101414.69;;;28.30;50.29
48848;BME280;36611;51.638;5.784;2022-08-03T07:42:07;101413.63;;;28.38;50.14
48848;BME280;36611;51.638;5.784;2022-08-03T07:44:35;101411.28;;;28.48;49.85
48848;BME280;36611;51.638;5.784;2022-08-03T07:47:01;101407.44;;;28.62;49.59
48848;BME280;36611;51.638;5.784;2022-08-03T07:49:28;101409.97;;;28.77;49.35
48848;BME280;36611;51.638;5.784;2022-08-03T07:51:56;101407.84;;;28.92;48.97
48848;BME280;36611;51.638;5.784;2022-08-03T07:54:42;101415.69;;;29.22;49.08
48848;BME280;36611;51.638;5.784;2022-08-03T07:57:08;101404.97;;;29.38;48.58
48848;BME280;36611;51.638;5.784;2022-08-03T07:59:35;101416.03;;;29.45;47.46
48848;BME280;36611;51.638;5.784;2022-08-03T08:02:25;101410.91;;;29.49;47.61
48848;BME280;36611;51.638;5.784;2022-08-03T08:04:51;101402.13;;;29.58;47.47
48848;BME280;36611;51.638;5.784;2022-08-03T08:07:21;101400.59;;;29.69;47.12
48848;BME280;36611;51.638;5.784;2022-08-03T08:09:47;101403.13;;;29.77;46.84
48848;BME280;36611;51.638;5.784;2022-08-03T08:12:14;101402.88;;;29.85;46.36
48848;BME280;36611;51.638;5.784;2022-08-03T08:14:46;101406.63;;;29.97;46.02
48848;BME280;36611;51.638;5.784;2022-08-03T08:17:13;101396.59;;;30.03;46.12
48848;BME280;36611;51.638;5.784;2022-08-03T08:19:40;101407.41;;;30.11;45.66
48848;BME280;36611;51.638;5.784;2022-08-03T08:22:17;101397.97;;;30.19;45.51
48848;BME280;36611;51.638;5.784;2022-08-03T08:24:59;101398.94;;;30.31;45.23
48848;BME280;36611;51.638;5.784;2022-08-03T08:27:26;101406.75;;;30.41;44.98
48848;BME280;36611;51.638;5.784;2022-08-03T08:30:15;101402.03;;;30.48;44.53
48848;BME280;36611;51.638;5.784;2022-08-03T08:32:45;101405.34;;;30.56;44.62
48848;BME280;36611;51.638;5.784;2022-08-03T08:35:19;101404.41;;;30.69;44.38
48848;BME280;36611;51.638;5.784;2022-08-03T08:37:45;101404.13;;;30.77;44.19
48848;BME280;36611;51.638;5.784;2022-08-03T08:40:19;101401.06;;;30.85;43.75
48848;BME280;36611;51.638;5.784;2022-08-03T08:42:51;101400.50;;;30.95;43.60
48848;BME280;36611;51.638;5.784;2022-08-03T08:45:25;101401.75;;;30.99;43.25
48848;BME280;36611;51.638;5.784;2022-08-03T08:47:54;101399.22;;;30.97;43.17
48848;BME280;36611;51.638;5.784;2022-08-03T08:50:27;101395.75;;;31.02;43.29
48848;BME280;36611;51.638;5.784;2022-08-03T08:53:00;101399.44;;;31.14;43.46
48848;BME280;36611;51.638;5.784;2022-08-03T08:55:28;101403.19;;;31.26;42.90
48848;BME280;36611;51.638;5.784;2022-08-03T08:58:15;101403.97;;;31.34;42.68
48848;BME280;36611;51.638;5.784;2022-08-03T09:00:46;101396.16;;;31.42;42.69
48848;BME280;36611;51.638;5.784;2022-08-03T09:03:17;101399.84;;;31.54;42.27
48848;BME280;36611;51.638;5.784;2022-08-03T09:05:58;101401.84;;;31.66;41.80
48848;BME280;36611;51.638;5.784;2022-08-03T09:08:25;101403.47;;;31.73;41.62
48848;BME280;36611;51.638;5.784;2022-08-03T09:10:52;101399.03;;;31.84;41.67
48848;BME280;36611;51.638;5.784;2022-08-03T09:13:23;101403.41;;;31.91;41.67
48848;BME280;36611;51.638;5.784;2022-08-03T09:18:41;101397.81;;;32.10;40.95
48848;BME280;36611;51.638;5.784;2022-08-03T09:21:24;101402.28;;;32.11;40.89
48848;BME280;36611;51.638;5.784;2022-08-03T09:24:03;101396.00;;;32.15;40.57
48848;BME280;36611;51.638;5.784;2022-08-03T09:26:35;101401.00;;;32.25;40.58
48848;BME280;36611;51.638;5.784;2022-08-03T09:29:05;101397.78;;;32.40;40.50
48848;BME280;36611;51.638;5.784;2022-08-03T09:31:41;101392.69;;;32.48;40.33
48848;BME280;36611;51.638;5.784;2022-08-03T09:34:13;101395.72;;;32.59;40.20
48848;BME280;36611;51.638;5.784;2022-08-03T09:36:43;101390.91;;;32.66;40.01
48848;BME280;36611;51.638;5.784;2022-08-03T09:39:17;101392.97;;;32.70;39.30
48848;BME280;36611;51.638;5.784;2022-08-03T09:42:07;101392.75;;;32.72;39.29
48848;BME280;36611;51.638;5.784;2022-08-03T09:44:43;101395.97;;;32.69;39.16
48848;BME280;36611;51.638;5.784;2022-08-03T09:47:12;101393.81;;;32.71;39.37
48848;BME280;36611;51.638;5.784;2022-08-03T09:49:41;101392.66;;;32.78;39.31
48848;BME280;36611;51.638;5.784;2022-08-03T09:52:18;101394.09;;;32.93;39.10
48848;BME280;36611;51.638;5.784;2022-08-03T09:55:10;101392.63;;;33.02;38.58
48848;BME280;36611;51.638;5.784;2022-08-03T09:58:07;101389.69;;;33.20;38.55
48848;BME280;36611;51.638;5.784;2022-08-03T10:01:00;101393.91;;;33.34;37.94
48848;BME280;36611;51.638;5.784;2022-08-03T10:03:34;101392.06;;;33.40;37.54
48848;BME280;36611;51.638;5.784;2022-08-03T10:06:21;101404.19;;;33.45;37.90
48848;BME280;36611;51.638;5.784;2022-08-03T10:09:23;101388.44;;;33.51;37.55
48848;BME280;36611;51.638;5.784;2022-08-03T10:11:50;101388.38;;;33.63;37.68
48848;BME280;36611;51.638;5.784;2022-08-03T10:14:21;101389.69;;;33.72;37.14
48848;BME280;36611;51.638;5.784;2022-08-03T10:16:48;101393.16;;;33.79;37.17
48848;BME280;36611;51.638;5.784;2022-08-03T10:19:15;101384.16;;;33.89;36.99
48848;BME280;36611;51.638;5.784;2022-08-03T10:21:48;101386.13;;;33.88;36.24
48848;BME280;36611;51.638;5.784;2022-08-03T10:24:23;101378.84;;;33.87;35.96
48848;BME280;36611;51.638;5.784;2022-08-03T10:26:50;101388.25;;;33.98;36.53
48848;BME280;36611;51.638;5.784;2022-08-03T10:29:23;101382.84;;;34.08;36.16
48848;BME280;36611;51.638;5.784;2022-08-03T10:31:55;101376.59;;;34.18;36.06
48848;BME280;36611;51.638;5.784;2022-08-03T10:34:28;101376.72;;;34.23;35.68
48848;BME280;36611;51.638;5.784;2022-08-03T10:36:58;101377.97;;;34.32;35.63
48848;BME280;36611;51.638;5.784;2022-08-03T10:39:29;101368.72;;;34.43;35.45
48848;BME280;36611;51.638;5.784;2022-08-03T10:41:56;101369.63;;;34.49;35.37
48848;BME280;36611;51.638;5.784;2022-08-03T10:44:36;101369.91;;;34.47;34.86
48848;BME280;36611;51.638;5.784;2022-08-03T10:47:08;101364.47;;;34.57;34.85
48848;BME280;36611;51.638;5.784;2022-08-03T10:49:36;101366.56;;;34.67;35.00
48848;BME280;36611;51.638;5.784;2022-08-03T10:52:03;101371.19;;;34.78;34.60
48848;BME280;36611;51.638;5.784;2022-08-03T10:54:52;101361.38;;;34.92;34.48
48848;BME280;36611;51.638;5.784;2022-08-03T10:57:54;101351.06;;;34.93;33.91
48848;BME280;36611;51.638;5.784;2022-08-03T11:00:26;101358.09;;;34.95;34.06
48848;BME280;36611;51.638;5.784;2022-08-03T11:03:12;101345.00;;;34.96;34.31
48848;BME280;36611;51.638;5.784;2022-08-03T11:05:47;101351.28;;;35.08;34.40
48848;BME280;36611;51.638;5.784;2022-08-03T11:08:27;101346.09;;;35.17;33.89
48848;BME280;36611;51.638;5.784;2022-08-03T11:16:22;101345.25;;;35.38;33.57
48848;BME280;36611;51.638;5.784;2022-08-03T11:18:56;101332.41;;;35.37;33.43
48848;BME280;36611;51.638;5.784;2022-08-03T11:40:47;101339.56;;;36.04;32.24
48848;BME280;36611;51.638;5.784;2022-08-03T11:46:02;101331.88;;;36.21;32.24
48848;BME280;36611;51.638;5.784;2022-08-03T11:48:40;101332.44;;;36.23;31.94
48848;BME280;36611;51.638;5.784;2022-08-03T11:51:24;101341.41;;;36.25;31.90
48848;BME280;36611;51.638;5.784;2022-08-03T11:53:57;101337.84;;;36.29;31.47
48848;BME280;36611;51.638;5.784;2022-08-03T11:56:24;101338.69;;;36.30;31.32
48848;BME280;36611;51.638;5.784;2022-08-03T11:58:53;101337.50;;;36.26;30.82
48848;BME280;36611;51.638;5.784;2022-08-03T12:01:40;101337.84;;;36.29;30.96
48848;BME280;36611;51.638;5.784;2022-08-03T12:04:08;101333.38;;;36.34;31.11
48848;BME280;36611;51.638;5.784;2022-08-03T12:06:36;101335.94;;;36.40;31.23
48848;BME280;36611;51.638;5.784;2022-08-03T12:09:21;101340.22;;;36.48;30.79
48848;BME280;36611;51.638;5.784;2022-08-03T12:11:49;101336.06;;;36.50;30.68
48848;BME280;36611;51.638;5.784;2022-08-03T12:14:51;101333.81;;;36.52;30.63
48848;BME280;36611;51.638;5.784;2022-08-03T12:17:18;101336.66;;;36.57;29.71
48848;BME280;36611;51.638;5.784;2022-08-03T12:19:46;101331.03;;;36.52;30.05
48848;BME280;36611;51.638;5.784;2022-08-03T12:22:12;101336.34;;;36.54;29.73
48848;BME280;36611;51.638;5.784;2022-08-03T12:24:42;101338.34;;;36.58;29.82
48848;BME280;36611;51.638;5.784;2022-08-03T12:27:09;101337.28;;;36.70;30.20
48848;BME280;36611;51.638;5.784;2022-08-03T12:29:35;101343.28;;;36.83;30.10
48848;BME280;36611;51.638;5.784;2022-08-03T12:32:02;101338.59;;;36.99;29.62
48848;BME280;36611;51.638;5.784;2022-08-03T12:34:48;101339.19;;;37.11;29.57
48848;BME280;36611;51.638;5.784;2022-08-03T12:37:21;101340.34;;;37.15;29.20
48848;BME280;36611;51.638;5.784;2022-08-03T12:39:54;101339.78;;;37.13;29.21
48848;BME280;36611;51.638;5.784;2022-08-03T12:42:34;101335.84;;;37.09;28.89
48848;BME280;36611;51.638;5.784;2022-08-03T12:45:24;101327.72;;;37.08;28.58
48848;BME280;36611;51.638;5.784;2022-08-03T12:47:56;101325.19;;;37.06;28.40
48848;BME280;36611;51.638;5.784;2022-08-03T12:50:28;101328.56;;;37.08;28.22
48848;BME280;36611;51.638;5.784;2022-08-03T12:53:01;101327.16;;;37.11;28.72
48848;BME280;36611;51.638;5.784;2022-08-03T12:55:30;101332.75;;;37.11;28.86
48848;BME280;36611;51.638;5.784;2022-08-03T12:58:34;101329.69;;;37.12;28.53
48848;BME280;36611;51.638;5.784;2022-08-03T13:01:05;101329.97;;;37.16;28.61
48848;BME280;36611;51.638;5.784;2022-08-03T13:03:44;101328.06;;;37.21;28.80
48848;BME280;36611;51.638;5.784;2022-08-03T13:06:22;101327.84;;;37.28;28.76
48848;BME280;36611;51.638;5.784;2022-08-03T13:09:01;101330.38;;;37.30;28.32
48848;BME280;36611;51.638;5.784;2022-08-03T13:11:28;101315.81;;;37.33;28.27
48848;BME280;36611;51.638;5.784;2022-08-03T13:14:15;101319.75;;;37.37;28.21
48848;BME280;36611;51.638;5.784;2022-08-03T13:16:46;101316.38;;;37.40;28.40
48848;BME280;36611;51.638;5.784;2022-08-03T13:19:12;101308.81;;;37.40;27.93
48848;BME280;36611;51.638;5.784;2022-08-03T13:21:41;101308.81;;;37.35;27.88
48848;BME280;36611;51.638;5.784;2022-08-03T13:24:30;101309.38;;;37.37;27.92
48848;BME280;36611;51.638;5.784;2022-08-03T13:26:58;101313.88;;;37.43;27.99
48848;BME280;36611;51.638;5.784;2022-08-03T13:29:25;101313.59;;;37.50;27.46
48848;BME280;36611;51.638;5.784;2022-08-03T13:31:52;101309.97;;;37.54;27.47
48848;BME280;36611;51.638;5.784;2022-08-03T13:34:20;101307.44;;;37.53;27.62
48848;BME280;36611;51.638;5.784;2022-08-03T13:36:50;101304.66;;;37.63;27.63
48848;BME280;36611;51.638;5.784;2022-08-03T13:39:35;101306.09;;;37.71;27.46
48848;BME280;36611;51.638;5.784;2022-08-03T13:42:21;101309.19;;;37.79;27.67
48848;BME280;36611;51.638;5.784;2022-08-03T13:44:48;101304.72;;;37.83;27.32
48848;BME280;36611;51.638;5.784;2022-08-03T13:47:15;101310.88;;;37.85;27.49
48848;BME280;36611;51.638;5.784;2022-08-03T13:49:42;101307.78;;;37.82;27.60
48848;BME280;36611;51.638;5.784;2022-08-03T13:52:26;101309.75;;;37.76;27.62